METAR Data
IDs: Format: Raw Decoded Include TAF

Data at: 1715 UTC 21 Sep 2018

KUVA 211655Z AUTO 15008KT 10SM BKN022 OVC028 27/23 A2997 RMK AO2 T02720232
KUVA 211635Z AUTO 15009KT 10SM OVC022 27/23 A2997 RMK AO2 LTG DSNT N AND NW T02690230
KUVA 211615Z AUTO 15007KT 10SM OVC020 27/23 A2997 RMK AO2 LTG DSNT NW T02650229
KUVA 211555Z AUTO 17009KT 10SM OVC020 26/23 A2997 RMK AO2 LTG DSNT NW T02610229
KUVA 211535Z AUTO 16009KT 10SM OVC020 26/23 A2996 RMK AO2 LTG DSNT NW T02600230
KUVA 211515Z AUTO 16010KT 10SM OVC020 26/23 A2996 RMK AO2 T02580230
KUVA 211455Z AUTO 14011G15KT 10SM BKN016 BKN023 26/23 A2995 RMK AO2 T02560230
KUVA 211435Z AUTO 14010KT 10SM SCT010 BKN018 BKN023 26/23 A2995 RMK AO2 T02570232
KUVA 211415Z AUTO 14009KT 10SM SCT010 BKN019 25/23 A2995 RMK AO2 T02510233
KUVA 211355Z AUTO 14009KT 10SM SCT013 SCT018 SCT095 25/23 A2994 RMK AO2 T02470233
KUVA 211335Z AUTO 13008KT 10SM SCT009 BKN015 BKN095 24/23 A2994 RMK AO2 T02440232
KUVA 211315Z AUTO 12005KT 10SM VCTS OVC015 24/23 A2994 RMK AO2 T02420232
KUVA 211255Z AUTO 12005KT 10SM BKN013 24/23 A2993 RMK AO2 T02400231
KUVA 211235Z AUTO 12006KT 10SM SCT013 SCT017 SCT085 24/23 A2992 RMK AO2 T02400231
KUVA 211215Z AUTO 12006KT 10SM SCT013 BKN019 BKN085 24/23 A2991 RMK AO2 LTG DSNT NW T02400231
KUVA 211155Z AUTO 12006KT 10SM SCT011 SCT017 BKN085 24/23 A2991 RMK AO2 T02400231 10253 20240
KUVA 211135Z AUTO 11005KT 10SM SCT011 SCT085 24/23 A2991 RMK AO2 T02400232
KUVA 211115Z AUTO 12006KT 10SM BKN014 24/23 A2990 RMK AO2 T02410233
KUVA 211055Z AUTO 12007KT 10SM BKN016 24/23 A2990 RMK AO2 T02420233
KUVA 211035Z AUTO 12007KT 10SM SCT011 BKN018 24/24 A2990 RMK AO2 T02430235
KUVA 211015Z AUTO 12008KT 10SM SCT010 BKN016 24/24 A2989 RMK AO2 LTG DSNT NW T02430235
KUVA 210955Z AUTO 12008KT 10SM SCT010 BKN016 BKN041 25/24 A2989 RMK AO2 T02450235
KUVA 210935Z AUTO 13006KT 10SM BKN013 BKN041 25/24 A2990 RMK AO2 T02450235
KUVA 210915Z AUTO 13006KT 10SM SCT012 SCT017 SCT050 25/24 A2990 RMK AO2 T02450236
KUVA 210855Z AUTO 12009KT 10SM -DZ SCT010 SCT016 SCT039 25/24 A2990 RMK AO2 T02460236
KUVA 210835Z AUTO 12008KT 10SM -DZ SCT011 SCT014 SCT049 25/24 A2991 RMK AO2 T02480237
KUVA 210815Z AUTO 13008KT 10SM SCT011 SCT047 25/24 A2991 RMK AO2 T02500236
KUVA 210755Z AUTO 13007KT 10SM SCT013 SCT038 25/24 A2991 RMK AO2 LTG DSNT NW T02500236
KUVA 210735Z AUTO 13008KT 10SM BKN013 OVC018 25/24 A2991 RMK AO2 LTG DSNT NW T02520237
KUVA 210715Z AUTO 13007KT 10SM OVC015 25/24 A2992 RMK AO2 LTG DSNT NE T02530237
KUVA 210655Z AUTO 13006KT 10SM OVC013 25/24 A2993 RMK AO2 T02510237
KUVA 210635Z AUTO 11007KT 10SM BKN013 OVC049 25/24 A2993 RMK AO2 T02500236
KUVA 210615Z AUTO 11008KT 10SM OVC013 25/24 A2993 RMK AO2 T02500235
KUVA 210555Z AUTO 11009KT 10SM OVC013 25/24 A2993 RMK AO2 T02500235 10268 20248 402940237
KUVA 210535Z AUTO 12009KT 10SM BKN013 25/23 A2993 RMK AO2 T02490233
KUVA 210515Z AUTO 12009KT 10SM SCT013 25/23 A2993 RMK AO2 T02500233
KUVA 210455Z AUTO 11008KT 10SM SCT013 25/23 A2993 RMK AO2 T02500233
KUVA 210435Z AUTO 11009KT 10SM CLR 25/23 A2993 RMK AO2 T02520232
KUVA 210415Z AUTO 10008KT 10SM SCT048 26/23 A2993 RMK AO2 T02550231
KUVA 210355Z AUTO 10007KT 10SM SCT044 26/23 A2993 RMK AO2 T02560231
KUVA 210335Z AUTO 11008KT 10SM BKN046 BKN055 26/23 A2992 RMK AO2 T02600230
KUVA 210315Z AUTO 10006KT 10SM OVC048 26/23 A2991 RMK AO2 T02550231
KUVA 210255Z AUTO 07003KT 10SM BKN050 26/23 A2991 RMK AO2 LTG DSNT NW T02550231
KUVA 210235Z AUTO 09004KT 10SM CLR 26/23 A2991 RMK AO2 T02560230
KUVA 210215Z AUTO 10005KT 10SM SCT049 26/23 A2991 RMK AO2 LTG DSNT S T02570232
KUVA 210155Z AUTO 10004KT 10SM SCT049 26/23 A2990 RMK AO2 T02560233
KUVA 210135Z AUTO 10004KT 10SM SCT049 26/23 A2989 RMK AO2 T02550233
KUVA 210115Z AUTO 12003KT 10SM SCT036 SCT049 26/23 A2989 RMK AO2 T02590230
KUVA 210055Z AUTO 13004KT 10SM BKN038 BKN046 26/23 A2989 RMK AO2 T02610230
KUVA 210035Z AUTO 14003KT 10SM SCT040 26/23 A2989 RMK AO2 T02630230
KUVA 210015Z AUTO 15003KT 10SM SCT042 27/23 A2989 RMK AO2 T02650233
KUVA 202355Z AUTO 15005KT 10SM CLR 27/23 A2988 RMK AO2 T02690230 10294 20269
KUVA 202335Z AUTO 15005KT 10SM CLR 27/23 A2988 RMK AO2 T02720227
KUVA 202315Z AUTO 15007KT 10SM CLR 27/23 A2987 RMK AO2 T02740227
KUVA 202255Z AUTO 16006KT 10SM CLR 28/23 A2987 RMK AO2 T02750225
KUVA 202235Z AUTO 19007KT 10SM CLR 28/22 A2988 RMK AO2 T02750222
KUVA 202215Z AUTO 18007KT 10SM CLR 28/23 A2988 RMK AO2 T02780225
KUVA 202155Z AUTO 19009KT 10SM SCT036 28/22 A2988 RMK AO2 LTG DSNT S T02810222
KUVA 202135Z AUTO 19009KT 10SM SCT036 29/22 A2988 RMK AO2 T02850218
KUVA 202115Z AUTO 16009KT 10SM SCT034 SCT040 29/23 A2988 RMK AO2 T02900225
KUVA 202055Z AUTO 15010G15KT 10SM SCT029 SCT036 29/22 A2989 RMK AO2 T02880224
KUVA 202035Z AUTO 18006KT 10SM SCT029 SCT040 29/23 A2990 RMK AO2 T02850225
KUVA 202015Z AUTO 16008KT 10SM SCT033 SCT043 SCT049 28/22 A2991 RMK AO2 LTG DSNT S T02810222
KUVA 201955Z AUTO 16009KT 10SM BKN033 BKN041 28/22 A2991 RMK AO2 T02810220
KUVA 201935Z AUTO 17010G16KT 10SM SCT031 SCT037 29/22 A2992 RMK AO2 T02850218
KUVA 201915Z AUTO 18013G19KT 10SM SCT031 SCT040 BKN065 29/22 A2993 RMK AO2 T02900220
KUVA 201855Z AUTO 17010KT 10SM SCT029 SCT039 SCT060 29/22 A2993 RMK AO2 T02850220
KUVA 201835Z AUTO 17014G17KT 10SM SCT022 SCT031 SCT039 28/22 A2994 RMK AO2 T02840219
KUVA 201815Z AUTO 16013KT 10SM SCT021 SCT038 SCT055 28/23 A2995 RMK AO2 T02810233
KUVA 201755Z AUTO 16012KT 10SM SCT021 SCT026 SCT039 28/23 A2996 RMK AO2 T02790232 10279 20237
KUVA 201735Z AUTO 16012G16KT 10SM SCT021 SCT027 BKN043 27/23 A2996 RMK AO2 T02680231
KUVA 201715Z AUTO 17011KT 10SM SCT018 SCT023 BKN080 27/23 A2997 RMK AO2 T02720229
KUVA 201655Z AUTO 15010G15KT 10SM SCT018 BKN025 OVC080 27/23 A2998 RMK AO2 T02730234
KUVA 201635Z AUTO 17009KT 10SM SCT016 BKN034 OVC080 27/23 A2998 RMK AO2 T02650232
KUVA 201615Z AUTO 16008KT 10SM SCT016 BKN034 OVC090 27/23 A2998 RMK AO2 T02650233
KUVA 201550Z AUTO 16008KT 10SM SCT015 BKN028 OVC090 26/23 A2998 RMK AO2 T02600230
KUVA 201535Z AUTO 16008KT 10SM SCT015 BKN026 OVC090 26/23 A2998 RMK AO2 T02570230
KUVA 201515Z AUTO 13007KT 10SM SCT009 BKN015 OVC100 26/23 A2998 RMK AO2 LTG DSNT S T02550232
KUVA 201455Z AUTO 12005KT 10SM BKN010 BKN100 OVC120 25/24 A2997 RMK AO2 T02500235
KUVA 201435Z AUTO 11006KT 10SM BKN013 BKN020 BKN110 25/24 A2996 RMK AO2 T02490236
KUVA 201415Z AUTO 12004KT 10SM SCT015 SCT060 BKN110 24/24 A2996 RMK AO2 T02430235
KUVA 201355Z AUTO 11004KT 10SM SCT006 BKN120 24/24 A2996 RMK AO2 LTG DSNT S T02410235
KUVA 201335Z AUTO 13004KT 10SM SCT006 BKN110 24/24 A2995 RMK AO2 LTG DSNT NE T02400235
KUVA 201315Z AUTO 13005KT 10SM SCT008 SCT120 24/23 A2995 RMK AO2 T02390234
KUVA 201255Z AUTO 12004KT 10SM SCT007 SCT120 24/23 A2994 RMK AO2 LTG DSNT E T02370233
KUVA 201235Z AUTO 12005KT 10SM BKN007 BKN120 24/23 A2994 RMK AO2 T02370233
KUVA 201215Z AUTO 13004KT 10SM BKN007 24/23 A2993 RMK AO2 T02380233
KUVA 201155Z AUTO 12005KT 10SM CLR 24/23 A2992 RMK AO2 LTG DSNT E AND NW T02380233 10245 20237
KUVA 201135Z AUTO 13007KT 10SM CLR 24/23 A2993 RMK AO2 LTG DSNT NW T02400233
KUVA 201115Z AUTO 13006KT 10SM CLR 24/23 A2993 RMK AO2 LTG DSNT NW T02400233
KUVA 201055Z AUTO 13006KT 10SM SCT010 24/23 A2993 RMK AO2 LTG DSNT N AND NW T02400233
KUVA 201035Z AUTO 14007KT 10SM SCT008 24/23 A2993 RMK AO2 LTG DSNT NW T02410234
KUVA 201015Z AUTO 14006KT 10SM BKN008 OVC012 24/24 A2993 RMK AO2 LTG DSNT N T02420235
KUVA 200955Z AUTO 14006KT 10SM VCTS OVC010 24/24 A2993 RMK AO2 LTG DSNT N T02430235
KUVA 200935Z AUTO 13008KT 10SM OVC010 24/24 A2993 RMK AO2 T02430235
KUVA 200915Z AUTO 14008KT 10SM OVC010 25/24 A2994 RMK AO2 T02450235
KUVA 200855Z AUTO 14008KT 10SM OVC010 25/24 A2994 RMK AO2 T02450236
KUVA 200835Z AUTO 12007KT 10SM OVC010 24/24 A2994 RMK AO2 T02430235
KUVA 200815Z AUTO 12006KT 10SM BKN010 BKN085 24/24 A2994 RMK AO2 T02400235
KUVA 200755Z AUTO 12006KT 10SM SCT010 24/23 A2994 RMK AO2 T02400233
KUVA 200735Z AUTO 11008KT 10SM SCT015 24/23 A2994 RMK AO2 T02400231
KUVA 200715Z AUTO 11006KT 10SM CLR 24/23 A2995 RMK AO2 T02380230
KUVA 200655Z AUTO 10005KT 10SM CLR 24/23 A2995 RMK AO2 T02380228
KUVA 200635Z AUTO 11005KT 10SM CLR 24/23 A2995 RMK AO2 T02390226
KUVA 200615Z AUTO 09004KT 10SM CLR 24/23 A2995 RMK AO2 T02400226
KUVA 200555Z AUTO 10005KT 10SM CLR 24/23 A2995 RMK AO2 T02420226 10277 20242 403110228
KUVA 200535Z AUTO 11005KT 10SM CLR 25/23 A2996 RMK AO2 T02450225